Aérodrome :
LOGIN :

S'inscrire | Disclaimer

   EN    FR    IT 

 










Légende :    VFR   VFR Marginal   IFR   IFR Intensif   IFR Très Intensif
Visi : 
Plafond : 
>= 8 km
>= 3000ft
5 à 8 km
1000 à 3000 ft
1500m à 5 km
500 à 1000 ft
800 à 1500m
200 à 500 ft
< 800m
< 200 ft
Symboles :   Orages  Brouillard  Fortes neiges  Fortes précipitations  Vent > 20 kt
SIGMETs :   Divers  Orages  Givrage  Turbulence  Onde Orograph.  Cendres Volcan.






- Altitude de l'aérodrome : 1416 ft
- Code IATA : ZRH


LSZH - Zurich

DERNIER METAR :
  • 171020Z 33005KT 3200 -RADZ FEW004 SCT009 BKN011 04/03 Q1004 TEMPO BKN009

METARs EXPIRÉS :
  • 170950Z 34005KT 3200 -RA FEW006 SCT009 BKN011 04/03 Q1004 TEMPO 2800 RA BKN009
  • 170920Z 34004KT 320V030 2800 -RA FEW004 SCT008 BKN012 03/02 Q1004 RERA TEMPO 3000 BKN008
  • 170850Z 35003KT 2800 RA FEW004 BKN008 OVC014 03/02 Q1005 NOSIG
  • 170820Z 35005KT 2700 RADZ FEW005 BKN007 OVC028 03/02 Q1005 TEMPO 3500
  • 170750Z 34005KT 3200 -RADZ FEW006 BKN008 OVC030 03/02 Q1005 NOSIG

TAF AMD TAF LSZH
Valide du 17 à 10h jusqu'au 18 à 15h UTC


171035Z 1710/1815 34005KT 3200 -RADZ FEW004 SCT009 BKN011 TX03/1714Z TN01/1806Z TX07/1814Z
PROB40
TEMPO 1710/1714 02006KT 2500 RASN BKN007
BECMG 1716/1720 22005KT 5000 NSW BKN015
PROB40
TEMPO 1800/1808 3000 RA BKN010
BECMG 1805/1808 23006KT 9999 BKN025
ATIS : +41 43 816 2295 (DEP) +41 43 816 2294 (ARR)



MET'MAP, la Météo Aéronautique d'un coup d'oeil ! - Copyright ORBIFLY Décembre 2007 - Disclaimer

ORBIFLY MET'MAP TEAM :

Programmation & Développement : Alexandra Zaïnal
Conception & Développement : Baudouin d'Aumeries
Co-Programmation & Développement : Marc-Olivier Méhu
Soutien technique & logistique : Manuel Goepfert

Contact : metmap@orbifly.com




SOURCES & CREDITS :

   NOAA